Polk City, Iowa
Current Conditions -  °F | °C
As of 2:55 AM on Saturday 22 Nov 2014 (Local Time) from KIKV Reporting Station
Overcast Overcast  
Wind Chill: 35°   Ceiling: 800
Heat Index: 39°   Visibility: 8mi
Dew Point: 36°   Wind: 6mph
Humidity: 87%   Direction: NA
Pressure: 29.97"   Gusts: NA
Location:  41.77°N, 93.71°W
Report Text: KIKV 220855Z AUTO VRB05KT 8SM OVC008 04/02 A2997 RMK AO2
Loading
Personal Weather Stations






























Interactive Weather Map New forecast layout! Learn more

10-Day Weather Forecast

Advertisements
Track Severe Weather on mobile